Emu Arrow — C6OR4 — position and weather

sailwx.info

Track history (hours):
 
Tides and Currents Weather Stations Pressure Air Temp Water Temp Dewpoint Dewpoint Depression Visibility Wind Speed Wind Dir Waves Ship Positions

Emu Arrow

Last reported at 2014-Sep-29 02:25 UTC. Time now 2014-Sep-30 11:53 UTC.
Position S 38°40' E 141°43'.

Length 200 m; draft 7.8 m.

Type: Cargo ship. MMSI: 309805000.

Date/timePositionNaut miles runAvg speedWind from/ knotsBaromVisibWave heightAir tempDewpointWater temp
2014-Sep-29 02:25S 38°40' E 141°43'8 9.7
2014-Sep-29 01:33S 38°42' E 141°53'9 9.4
2014-Sep-29 00:33S 38°45' E 142°05'9 9.2
2014-Sep-28 23:31S 38°48' E 142°16'9 8.8
2014-Sep-28 22:32S 38°49' E 142°27'88 9.4
2014-Sep-28 13:11S 38°28' E 144°17'  
2014-Sep-25 09:33S 38°60' E 145°47'1212.3
2014-Sep-25 08:33S 39°06' E 146°01'1212.3
2014-Sep-25 07:33S 39°11' E 146°15'1111.4
2014-Sep-25 06:33S 39°09' E 146°30'1111.3
2014-Sep-25 05:33S 39°05' E 146°44'1111.3
2014-Sep-25 04:33S 39°02' E 146°58'1110.8
2014-Sep-25 03:33S 38°58' E 147°11'1111.1
2014-Sep-25 02:33S 38°55' E 147°24'1311.9
2014-Sep-25 01:29S 38°52' E 147°40'10412.5
2014-Sep-24 17:06S 38°02' E 149°37'712.4
2014-Sep-24 16:33S 37°58' E 149°44'1313.0
2014-Sep-24 15:33S 37°51' E 149°58'1413.5
2014-Sep-24 14:33S 37°43' E 150°12'1514.6
2014-Sep-24 13:31S 37°29' E 150°19'1815.4
2014-Sep-24 12:20S 37°11' E 150°25'7113.7
2014-Sep-24 07:08S 36°03' E 150°51'813.2
2014-Sep-24 06:33S 35°56' E 150°54'18013.7
2014-Sep-23 17:27S 33°02' E 151°50'7 7.8
2014-Sep-23 16:34S 32°55' E 151°47'1 0.7
2014-Sep-23 15:33S 32°55' E 151°46'0 0.0
2014-Sep-23 14:33S 32°55' E 151°46'0 0.0
2014-Sep-23 13:30S 32°55' E 151°46'0 0.0
2014-Sep-23 12:33S 32°55' E 151°46'0 0.0
2014-Sep-23 11:30S 32°55' E 151°46'0 0.0
2014-Sep-23 10:30S 32°55' E 151°46'0 0.0
2014-Sep-23 09:30S 32°55' E 151°46'0 0.0
2014-Sep-23 08:30S 32°55' E 151°46'0 0.0
2014-Sep-23 07:33S 32°55' E 151°46'0 0.0
2014-Sep-23 06:30S 32°55' E 151°46'0 0.0
2014-Sep-23 05:33S 32°55' E 151°46'0 0.0
2014-Sep-23 04:27S 32°55' E 151°46'0 0.0
2014-Sep-23 03:30S 32°55' E 151°46'0 0.0
2014-Sep-23 02:33S 32°55' E 151°46'0 0.0
2014-Sep-23 01:30S 32°55' E 151°46'0 0.0
2014-Sep-23 00:33S 32°55' E 151°46'0 0.0
2014-Sep-22 23:30S 32°55' E 151°46'0 0.0
2014-Sep-22 22:30S 32°55' E 151°46'0 0.0
2014-Sep-22 21:30S 32°55' E 151°46'0 0.0
2014-Sep-22 20:30S 32°55' E 151°46'0 0.0
2014-Sep-22 19:33S 32°55' E 151°46'0 0.0
2014-Sep-22 18:30S 32°55' E 151°46'0 0.0
2014-Sep-22 17:33S 32°55' E 151°46'0 0.0
2014-Sep-22 16:27S 32°55' E 151°46'0 0.0
2014-Sep-22 15:30S 32°55' E 151°46'0 0.0
2014-Sep-22 14:33S 32°55' E 151°46'0 0.0
2014-Sep-22 13:30S 32°55' E 151°46'0 0.0
2014-Sep-22 12:30S 32°55' E 151°46'0 0.0
2014-Sep-22 11:30S 32°55' E 151°46'0 0.0
2014-Sep-22 10:33S 32°55' E 151°46'0 0.0
2014-Sep-22 09:30S 32°55' E 151°46'0 0.0
2014-Sep-22 08:33S 32°55' E 151°46'0 0.0
2014-Sep-22 07:30S 32°55' E 151°46'0 0.0
2014-Sep-22 06:30S 32°55' E 151°46'0 0.0
2014-Sep-22 05:30S 32°55' E 151°46'0 0.0
2014-Sep-22 04:30S 32°55' E 151°46'0 0.0
2014-Sep-22 03:30S 32°55' E 151°46'0 0.0
2014-Sep-22 02:30S 32°55' E 151°46'0 0.0
2014-Sep-22 01:30S 32°55' E 151°46'0 0.0
2014-Sep-22 00:30S 32°55' E 151°46'0 0.0
2014-Sep-21 23:33S 32°55' E 151°46'0 0.0
2014-Sep-21 22:30S 32°55' E 151°46'0 0.0
2014-Sep-21 21:30S 32°55' E 151°46'0 0.0
2014-Sep-21 20:33S 32°55' E 151°46'56345633.5
2014-Sep-21 19:33S 32°55' E 039°55'56345635.1
2014-Sep-21 18:33S 32°55' E 151°46'0 0.0
2014-Sep-21 17:33S 32°55' E 151°46'0 0.0
2014-Sep-21 16:33S 32°55' E 151°46'0 0.0
2014-Sep-21 15:30S 32°55' E 151°46'0 0.0
2014-Sep-21 14:30S 32°55' E 151°46'0 0.0
2014-Sep-21 13:33S 32°55' E 151°46'0 0.0
2014-Sep-21 12:33S 32°55' E 151°46'0 0.0
2014-Sep-21 11:30S 32°55' E 151°46'0 0.0
2014-Sep-21 10:33S 32°55' E 151°46'0 0.0
2014-Sep-21 09:30S 32°55' E 151°46'0 0.0
2014-Sep-21 08:30S 32°55' E 151°46'0 0.0
2014-Sep-21 07:30S 32°55' E 151°46'0 0.0
2014-Sep-21 06:30S 32°55' E 151°46'0 0.0
2014-Sep-21 05:30S 32°55' E 151°46'0 0.0
2014-Sep-21 04:33S 32°55' E 151°46'0 0.0
2014-Sep-21 03:30S 32°55' E 151°46'0 0.1
2014-Sep-21 02:30S 32°55' E 151°46'0 0.1
2014-Sep-21 01:30S 32°55' E 151°46'0 0.0
2014-Sep-21 00:33S 32°55' E 151°46'0 0.0
2014-Sep-20 23:30S 32°55' E 151°46'0 0.0
2014-Sep-20 22:30S 32°55' E 151°46'0 0.0
2014-Sep-20 21:33S 32°55' E 151°46'0 0.0
2014-Sep-20 20:33S 32°55' E 151°46'0 0.0
2014-Sep-20 19:33S 32°55' E 151°46'0 0.0
2014-Sep-20 18:33S 32°55' E 151°46'0 0.0
2014-Sep-20 17:30S 32°55' E 151°46'0 0.0
2014-Sep-20 16:33S 32°55' E 151°46'0 0.0
2014-Sep-20 15:33S 32°55' E 151°46'0 0.0
2014-Sep-20 14:33S 32°55' E 151°46'0 0.0
2014-Sep-20 13:30S 32°55' E 151°46'0 0.0
2014-Sep-20 12:33S 32°55' E 151°46'0 0.0
2014-Sep-20 11:30S 32°55' E 151°46'0 0.0
2014-Sep-20 10:30S 32°55' E 151°46'0 0.0
2014-Sep-20 09:33S 32°55' E 151°46'0 0.0
2014-Sep-20 08:30S 32°55' E 151°46'0 0.0
2014-Sep-20 07:33S 32°55' E 151°46'0 0.0
2014-Sep-20 06:24S 32°55' E 151°46'0 0.0
2014-Sep-20 05:33S 32°55' E 151°46'0 0.0
2014-Sep-20 04:33S 32°55' E 151°46'0 0.0
2014-Sep-20 03:30S 32°55' E 151°46'0 0.0
2014-Sep-20 02:33S 32°55' E 151°46'0 0.0
2014-Sep-20 01:30S 32°55' E 151°46'0 0.0
2014-Sep-20 00:30S 32°55' E 151°46'0 0.0
2014-Sep-19 23:30S 32°55' E 151°46'0 0.0
2014-Sep-19 22:33S 32°55' E 151°46'0 0.0
2014-Sep-19 21:30S 32°55' E 151°46'0 0.0
2014-Sep-19 20:33S 32°55' E 151°46'0 0.0
2014-Sep-19 19:33S 32°55' E 151°46'0 0.0
2014-Sep-19 18:24S 32°55' E 151°46'0 0.0
2014-Sep-19 17:33S 32°55' E 151°46'0 0.0
2014-Sep-19 16:30S 32°55' E 151°46'0 0.0
2014-Sep-19 15:30S 32°55' E 151°46'0 0.0
2014-Sep-19 14:33S 32°55' E 151°46'0 0.0
2014-Sep-19 13:30S 32°55' E 151°46'0 0.0
2014-Sep-19 12:33S 32°55' E 151°46'5 4.7
2014-Sep-19 11:33S 32°57' E 151°51'6 6.3
2014-Sep-19 10:33S 33°04' E 151°52'4 3.7
2014-Sep-19 09:33S 33°07' E 151°53'2 2.5
2014-Sep-19 08:33S 33°10' E 151°54'2 1.5
2014-Sep-19 07:28S 33°08' E 151°54'1 1.1
2014-Sep-19 06:32S 33°07' E 151°55'3 2.9
2014-Sep-19 05:24S 33°04' E 151°55'4 5.0
2014-Sep-19 04:33S 32°60' E 151°56'6 6.0
2014-Sep-19 03:33S 33°01' E 152°03'7 7.1
2014-Sep-19 02:33S 33°01' E 152°11'  
Track history (hours):
 
Tides and Currents Weather Stations Pressure Air Temp Water Temp Dewpoint Dewpoint Depression Visibility Wind Speed Wind Dir Waves Ship Positions

Emu Arrow

Last reported at 2014-Sep-29 02:25 UTC. Time now 2014-Sep-30 11:53 UTC.
Position S 38°40' E 141°43'.

Length 200 m; draft 7.8 m.

Type: Cargo ship. MMSI: 309805000.

Date/timePositionNaut miles runAvg speedWind from/ knotsBaromVisibWave heightAir tempDewpointWater temp
2014-Sep-29 02:25S 38°40' E 141°43'8 9.7
2014-Sep-29 01:33S 38°42' E 141°53'9 9.4
2014-Sep-29 00:33S 38°45' E 142°05'9 9.2
2014-Sep-28 23:31S 38°48' E 142°16'9 8.8
2014-Sep-28 22:32S 38°49' E 142°27'88 9.4
2014-Sep-28 13:11S 38°28' E 144°17'  
2014-Sep-25 09:33S 38°60' E 145°47'1212.3
2014-Sep-25 08:33S 39°06' E 146°01'1212.3
2014-Sep-25 07:33S 39°11' E 146°15'1111.4
2014-Sep-25 06:33S 39°09' E 146°30'1111.3
2014-Sep-25 05:33S 39°05' E 146°44'1111.3
2014-Sep-25 04:33S 39°02' E 146°58'1110.8
2014-Sep-25 03:33S 38°58' E 147°11'1111.1
2014-Sep-25 02:33S 38°55' E 147°24'1311.9
2014-Sep-25 01:29S 38°52' E 147°40'10412.5
2014-Sep-24 17:06S 38°02' E 149°37'712.4
2014-Sep-24 16:33S 37°58' E 149°44'1313.0
2014-Sep-24 15:33S 37°51' E 149°58'1413.5
2014-Sep-24 14:33S 37°43' E 150°12'1514.6
2014-Sep-24 13:31S 37°29' E 150°19'1815.4
2014-Sep-24 12:20S 37°11' E 150°25'7113.7
2014-Sep-24 07:08S 36°03' E 150°51'813.2
2014-Sep-24 06:33S 35°56' E 150°54'18013.7
2014-Sep-23 17:27S 33°02' E 151°50'7 7.8
2014-Sep-23 16:34S 32°55' E 151°47'1 0.7
2014-Sep-23 15:33S 32°55' E 151°46'0 0.0
2014-Sep-23 14:33S 32°55' E 151°46'0 0.0
2014-Sep-23 13:30S 32°55' E 151°46'0 0.0
2014-Sep-23 12:33S 32°55' E 151°46'0 0.0
2014-Sep-23 11:30S 32°55' E 151°46'0 0.0
2014-Sep-23 10:30S 32°55' E 151°46'0 0.0
2014-Sep-23 09:30S 32°55' E 151°46'0 0.0
2014-Sep-23 08:30S 32°55' E 151°46'0 0.0
2014-Sep-23 07:33S 32°55' E 151°46'0 0.0
2014-Sep-23 06:30S 32°55' E 151°46'0 0.0
2014-Sep-23 05:33S 32°55' E 151°46'0 0.0
2014-Sep-23 04:27S 32°55' E 151°46'0 0.0
2014-Sep-23 03:30S 32°55' E 151°46'0 0.0
2014-Sep-23 02:33S 32°55' E 151°46'0 0.0
2014-Sep-23 01:30S 32°55' E 151°46'0 0.0
2014-Sep-23 00:33S 32°55' E 151°46'0 0.0
2014-Sep-22 23:30S 32°55' E 151°46'0 0.0
2014-Sep-22 22:30S 32°55' E 151°46'0 0.0
2014-Sep-22 21:30S 32°55' E 151°46'0 0.0
2014-Sep-22 20:30S 32°55' E 151°46'0 0.0
2014-Sep-22 19:33S 32°55' E 151°46'0 0.0
2014-Sep-22 18:30S 32°55' E 151°46'0 0.0
2014-Sep-22 17:33S 32°55' E 151°46'0 0.0
2014-Sep-22 16:27S 32°55' E 151°46'0 0.0
2014-Sep-22 15:30S 32°55' E 151°46'0 0.0
2014-Sep-22 14:33S 32°55' E 151°46'0 0.0
2014-Sep-22 13:30S 32°55' E 151°46'0 0.0
2014-Sep-22 12:30S 32°55' E 151°46'0 0.0
2014-Sep-22 11:30S 32°55' E 151°46'0 0.0
2014-Sep-22 10:33S 32°55' E 151°46'0 0.0
2014-Sep-22 09:30S 32°55' E 151°46'0 0.0
2014-Sep-22 08:33S 32°55' E 151°46'0 0.0
2014-Sep-22 07:30S 32°55' E 151°46'0 0.0
2014-Sep-22 06:30S 32°55' E 151°46'0 0.0
2014-Sep-22 05:30S 32°55' E 151°46'0 0.0
2014-Sep-22 04:30S 32°55' E 151°46'0 0.0
2014-Sep-22 03:30S 32°55' E 151°46'0 0.0
2014-Sep-22 02:30S 32°55' E 151°46'0 0.0
2014-Sep-22 01:30S 32°55' E 151°46'0 0.0
2014-Sep-22 00:30S 32°55' E 151°46'0 0.0
2014-Sep-21 23:33S 32°55' E 151°46'0 0.0
2014-Sep-21 22:30S 32°55' E 151°46'0 0.0
2014-Sep-21 21:30S 32°55' E 151°46'0 0.0
2014-Sep-21 20:33S 32°55' E 151°46'56345633.5
2014-Sep-21 19:33S 32°55' E 039°55'56345635.1
2014-Sep-21 18:33S 32°55' E 151°46'0 0.0
2014-Sep-21 17:33S 32°55' E 151°46'0 0.0
2014-Sep-21 16:33S 32°55' E 151°46'0 0.0
2014-Sep-21 15:30S 32°55' E 151°46'0 0.0
2014-Sep-21 14:30S 32°55' E 151°46'0 0.0
2014-Sep-21 13:33S 32°55' E 151°46'0 0.0
2014-Sep-21 12:33S 32°55' E 151°46'0 0.0
2014-Sep-21 11:30S 32°55' E 151°46'0 0.0
2014-Sep-21 10:33S 32°55' E 151°46'0 0.0
2014-Sep-21 09:30S 32°55' E 151°46'0 0.0
2014-Sep-21 08:30S 32°55' E 151°46'0 0.0
2014-Sep-21 07:30S 32°55' E 151°46'0 0.0
2014-Sep-21 06:30S 32°55' E 151°46'0 0.0
2014-Sep-21 05:30S 32°55' E 151°46'0 0.0
2014-Sep-21 04:33S 32°55' E 151°46'0 0.0
2014-Sep-21 03:30S 32°55' E 151°46'0 0.1
2014-Sep-21 02:30S 32°55' E 151°46'0 0.1
2014-Sep-21 01:30S 32°55' E 151°46'0 0.0
2014-Sep-21 00:33S 32°55' E 151°46'0 0.0
2014-Sep-20 23:30S 32°55' E 151°46'0 0.0
2014-Sep-20 22:30S 32°55' E 151°46'0 0.0
2014-Sep-20 21:33S 32°55' E 151°46'0 0.0
2014-Sep-20 20:33S 32°55' E 151°46'0 0.0
2014-Sep-20 19:33S 32°55' E 151°46'0 0.0
2014-Sep-20 18:33S 32°55' E 151°46'0 0.0
2014-Sep-20 17:30S 32°55' E 151°46'0 0.0
2014-Sep-20 16:33S 32°55' E 151°46'0 0.0
2014-Sep-20 15:33S 32°55' E 151°46'0 0.0
2014-Sep-20 14:33S 32°55' E 151°46'0 0.0
2014-Sep-20 13:30S 32°55' E 151°46'0 0.0
2014-Sep-20 12:33S 32°55' E 151°46'0 0.0
2014-Sep-20 11:30S 32°55' E 151°46'0 0.0
2014-Sep-20 10:30S 32°55' E 151°46'0 0.0
2014-Sep-20 09:33S 32°55' E 151°46'0 0.0
2014-Sep-20 08:30S 32°55' E 151°46'0 0.0
2014-Sep-20 07:33S 32°55' E 151°46'0 0.0
2014-Sep-20 06:24S 32°55' E 151°46'0 0.0
2014-Sep-20 05:33S 32°55' E 151°46'0 0.0
2014-Sep-20 04:33S 32°55' E 151°46'0 0.0
2014-Sep-20 03:30S 32°55' E 151°46'0 0.0
2014-Sep-20 02:33S 32°55' E 151°46'0 0.0
2014-Sep-20 01:30S 32°55' E 151°46'0 0.0
2014-Sep-20 00:30S 32°55' E 151°46'0 0.0
2014-Sep-19 23:30S 32°55' E 151°46'0 0.0
2014-Sep-19 22:33S 32°55' E 151°46'0 0.0
2014-Sep-19 21:30S 32°55' E 151°46'0 0.0
2014-Sep-19 20:33S 32°55' E 151°46'0 0.0
2014-Sep-19 19:33S 32°55' E 151°46'0 0.0
2014-Sep-19 18:24S 32°55' E 151°46'0 0.0
2014-Sep-19 17:33S 32°55' E 151°46'0 0.0
2014-Sep-19 16:30S 32°55' E 151°46'0 0.0
2014-Sep-19 15:30S 32°55' E 151°46'0 0.0
2014-Sep-19 14:33S 32°55' E 151°46'0 0.0
2014-Sep-19 13:30S 32°55' E 151°46'0 0.0
2014-Sep-19 12:33S 32°55' E 151°46'5 4.7
2014-Sep-19 11:33S 32°57' E 151°51'6 6.3
2014-Sep-19 10:33S 33°04' E 151°52'4 3.7
2014-Sep-19 09:33S 33°07' E 151°53'2 2.5
2014-Sep-19 08:33S 33°10' E 151°54'2 1.5
2014-Sep-19 07:28S 33°08' E 151°54'1 1.1
2014-Sep-19 06:32S 33°07' E 151°55'3 2.9
2014-Sep-19 05:24S 33°04' E 151°55'4 5.0
2014-Sep-19 04:33S 32°60' E 151°56'6 6.0
2014-Sep-19 03:33S 33°01' E 152°03'7 7.1
2014-Sep-19 02:33S 33°01' E 152°11'  

Dump ship's entire track history